Terminal Aerodrome Forecast
Issued by NWS

Current Version | Previous Version | Text Only | Print | Product List | Glossary On
Versions: 1 2 3 4 5 6 7 8 9 10 11 12 13 14 15 16 17 18 19 20 21 22 23 24 25 26 27 28 29 30 31 32 33 34 35 36 37 38 39 40 41 42
000
FTUS45 KBOU 312227 AAB
TAFAPA
TAF AMD
KAPA 312227Z 3122/0118 29025G35KT P6SM VCTS SCT080CB BKN140
      TEMPO 3122/3124 VRB20G30KT -SHRA BKN080
     FM010000 26011KT P6SM VCSH SCT070 BKN120
     FM010900 17007KT P6SM SCT120 BKN200=

USA.gov is the U.S. government's official web portal to all federal, state and local government web resources and services.